Nearby METAR Reports

 

LFLC - Clermont/Aulnat, France
Distance from station: S 1mi, 2km
Updated: Sat, 29-Feb-2020 2:00pm CET
Overcast
Overcast
 Wind from SSW
Wind: SSW 21 mph , 33 km/h
Temperature: 57°F , 14°C
Dew Point: 39°F , 4°C
Humidity: 51%
Barometer: 29.62 inHg , 1003 hPa
Clouds: Overcast
Visibility: 6 miles , 10 km
Cloud details: Partly Cloudy 4600 ft
Mostly Cloudy 5200 ft
Overcast 7000 ft
2020/02/29 13:00 LFLC 291300Z AUTO 21018KT 9999 SCT046 BKN052 OVC070 14/04 Q1003 TEMPO 18020G42KT SHRA
LFMH - St Etienne/Bouth, France
Distance from station: ESE 57mi, 92km
Updated: Sat, 29-Feb-2020 2:00pm CET
Thunderstorm
Thunderstorm
 Wind from S
Wind: S 24 mph , 39 km/h
Temperature: 57°F , 14°C
Dew Point: 43°F , 6°C
Humidity: 59%
Barometer: 29.62 inHg , 1003 hPa
Clouds: Thunderstorm
Visibility: 6 miles , 10 km
2020/02/29 13:00 LFMH 291300Z AUTO 17021KT 9999 ///TCU 14/06 Q1003 TEMPO SHRA BKN050 BECMG 20015G25KT
 
LFLN - Saint Yan, France
Distance from station: NE 60mi, 96km
Updated: Sat, 29-Feb-2020 2:00pm CET
Thunderstorm
Thunderstorm
 Wind from SW
Wind: SW 17 mph , 28 km/h, Gust: 31 mph , 50 km/h
Temperature: 59°F , 15°C
Dew Point: 39°F , 4°C
Humidity: 48%
Barometer: 29.56 inHg , 1001 hPa
Clouds: Thunderstorm
Visibility: 6 miles , 10 km
2020/02/29 13:00 LFLN 291300Z AUTO 23015G27KT 200V260 9999 ///TCU 15/04 Q1001 TEMPO 4000 SHRA
LFLW - Aurillac (aut), France
Distance from station: SSW 72mi, 116km
Updated: Sat, 29-Feb-2020 2:00pm CET

 Wind from WSW
Wind: WSW 10 mph , 17 km/h
Temperature: 48°F , 9°C
Wind Chill: 44°F , 7°C
Dew Point: 43°F , 6°C
Humidity: 82%
Barometer: 29.71 inHg , 1006 hPa
Visibility: 6 miles , 10 km
2020/02/29 13:00 LFLW 291300Z AUTO 25009KT 210V280 9999 ////// 09/06 Q1006
 
LFQG - Nevers/Fourchamb, France
Distance from station: N 84mi, 135km
Updated: Sat, 29-Feb-2020 2:00pm CET
Thunderstorm
Thunderstorm
 Wind from SW
Wind: SW 22 mph , 35 km/h, Gust: 36 mph , 57 km/h
Temperature: 59°F , 15°C
Dew Point: 41°F , 5°C
Humidity: 51%
Barometer: 29.47 inHg , 998 hPa
Clouds: Thunderstorm
Visibility: 6 miles , 10 km
Cloud details: Mostly Cloudy 4700 ft
Mostly Cloudy 6800 ft
Mostly Cloudy 8400 ft
2020/02/29 13:00 LFQG 291300Z AUTO 22019G31KT 190V250 9999 BKN047/// BKN068/// BKN084/// ///TCU 15/05 Q0998
LFLY - Lyon/Bron, France
Distance from station: E 86mi, 138km
Updated: Sat, 29-Feb-2020 2:00pm CET
Overcast
Overcast
 Wind from S
Wind: S 32 mph , 52 km/h, Gust: 45 mph , 72 km/h
Temperature: 55°F , 13°C
Dew Point: 45°F , 7°C
Humidity: 67%
Barometer: 29.65 inHg , 1004 hPa
Clouds: Overcast
Visibility: 6 miles , 10 km
Cloud details: Few Clouds 2700 ft
Mostly Cloudy 9000 ft
Overcast 10000 ft
2020/02/29 13:00 LFLY 291300Z AUTO 18028G39KT 9999 FEW027 BKN090 OVC100 13/07 Q1004 TEMPO 4000 SHRA SCT040TCU BKN045
 
LFOA - Avord (fafb), France
Distance from station: NNW 90mi, 145km
Updated: Sat, 29-Feb-2020 2:00pm CET
Light rain, Thunderstorm
Light rain, Thunderstorm
 Wind from WSW
Wind: WSW 26 mph , 43 km/h
Temperature: 48°F , 9°C
Wind Chill: 40°F , 4°C
Dew Point: 45°F , 7°C
Humidity: 87%
Barometer: 29.5 inHg , 999 hPa
Summary: Light Rain
Clouds: Thunderstorm
Visibility: 4 miles , 6 km
Cloud details: Few Clouds 1600 ft
Mostly Cloudy 4300 ft
Mostly Cloudy 5000 ft
2020/02/29 13:00 LFOA 291300Z AUTO 25023KT 6000 -RA FEW016/// BKN043/// BKN050/// ///CB 09/07 Q0999
LFLL - Lyon/Satolas, France
Distance from station: E 92mi, 147km
Updated: Sat, 29-Feb-2020 2:00pm CET
Mostly Cloudy
Mostly Cloudy
 Wind from SSW
Wind: SSW 26 mph , 43 km/h
Temperature: 55°F , 13°C
Dew Point: 45°F , 7°C
Humidity: 67%
Barometer: 29.65 inHg , 1004 hPa
Clouds: Mostly Cloudy
Visibility: 6 miles , 10 km
Cloud details: Few Clouds 3100 ft
Partly Cloudy 10000 ft
Mostly Cloudy 16000 ft
2020/02/29 13:00 LFLL 291300Z 20023KT 170V230 9999 FEW031 SCT100 BKN160 13/07 Q1004 NOSIG
 
LFBL - Limoges/Bellegar, France
Distance from station: W 97mi, 155km
Updated: Sat, 29-Feb-2020 2:00pm CET
Thunderstorm
Thunderstorm
 Wind from WSW
Wind: WSW 22 mph , 35 km/h
Temperature: 54°F , 12°C
Dew Point: 41°F , 5°C
Humidity: 63%
Barometer: 29.59 inHg , 1002 hPa
Clouds: Thunderstorm
Visibility: 6 miles , 10 km
Cloud details: Partly Cloudy 3200 ft
Mostly Cloudy 3900 ft
Mostly Cloudy 22000 ft
2020/02/29 13:00 LFBL 291300Z AUTO 24019KT 200V260 9999 SCT032/// BKN039/// BKN220/// ///CB 12/05 Q1002 TEMPO 25022G35KT 4000 -SHRA BKN012 SCT020TCU BKN035
LFSL - Brive/Souillac, France
Distance from station: WSW 97mi, 156km
Updated: Sat, 29-Feb-2020 2:00pm CET
Light rain, Overcast
Light rain, Overcast
 Wind from WSW
Wind: WSW 10 mph , 17 km/h
Temperature: 54°F , 12°C
Dew Point: 41°F , 5°C
Humidity: 63%
Barometer: 29.68 inHg , 1005 hPa
Summary: Light Rain
Clouds: Overcast
Visibility: 6 miles , 10 km
Cloud details: Few Clouds 4200 ft
Overcast 5800 ft
2020/02/29 13:00 LFSL 291300Z AUTO 24009KT 190V280 9999 -RA FEW042 OVC058 12/05 Q1005 NOSIG
 
LFLX - Chateauroux/Deol, France
Distance from station: NW 101mi, 163km
Updated: Sat, 29-Feb-2020 2:00pm CET
Overcast
Overcast
 Wind from WSW
Wind: WSW 23 mph , 37 km/h
Temperature: 52°F , 11°C
Dew Point: 48°F , 9°C
Humidity: 88%
Barometer: 29.53 inHg , 1000 hPa
Clouds: Overcast
Visibility: 6 miles , 10 km
Cloud details: Mostly Cloudy 1700 ft
Mostly Cloudy 2300 ft
Overcast 4800 ft
2020/02/29 13:00 LFLX 291300Z AUTO 25020KT 9999 BKN017 BKN023 OVC048 11/09 Q1000 TEMPO 22020G35KT 4000 SHRA SCT020TCU BKN025
LFCR - Rodez/Marcillac, France
Distance from station: SSW 103mi, 165km
Updated: Sat, 29-Feb-2020 2:00pm CET
Light rain, Overcast
Light rain, Overcast
 Wind from W
Wind: W 17 mph , 28 km/h
Temperature: 50°F , 10°C
Wind Chill: 44°F , 7°C
Dew Point: 43°F , 6°C
Humidity: 76%
Barometer: 29.74 inHg , 1007 hPa
Summary: Light Rain
Clouds: Overcast
Visibility: 6 miles , 10 km
Cloud details: Overcast 4700 ft
2020/02/29 13:00 LFCR 291300Z AUTO 27015KT 9999 -RA OVC047 10/06 Q1007 TEMPO 26015G26KT 4000 -SHRA BKN013 FEW025TCU OVC040
 
LFLU - Valence-Chabeuil, France
Distance from station: ESE 107mi, 172km
Updated: Sat, 29-Feb-2020 2:00pm CET
Thunderstorm
Thunderstorm
 Wind from S
Wind: S 18 mph , 30 km/h, Gust: 31 mph , 50 km/h
Temperature: 59°F , 15°C
Dew Point: 43°F , 6°C
Humidity: 55%
Barometer: 29.68 inHg , 1005 hPa
Clouds: Thunderstorm
Visibility: 6 miles , 10 km
Cloud details: Mostly Cloudy 4200 ft
Overcast 6000 ft
2020/02/29 13:00 LFLU 291300Z AUTO 17016G27KT 9999 BKN042/// OVC060/// ///TCU 15/06 Q1005
LFLS - Grenoble/St. Geo, France
Distance from station: ESE 108mi, 174km
Updated: Sat, 29-Feb-2020 2:00pm CET
Thunderstorm
Thunderstorm
 Wind from S
Wind: S 17 mph , 28 km/h
Temperature: 59°F , 15°C
Dew Point: 41°F , 5°C
Humidity: 51%
Barometer: 29.68 inHg , 1005 hPa
Clouds: Thunderstorm
Visibility: 6 miles , 10 km
Cloud details: Mostly Cloudy 5200 ft
Mostly Cloudy 10000 ft
Overcast 17000 ft
2020/02/29 13:00 LFLS 291300Z AUTO 17015KT 140V200 9999 BKN052/// BKN100/// OVC170/// ///TCU 15/05 Q1005 TEMPO 20015G30KT SHRA BKN030
 
LFYR - Romorantin/Pruni, France
Distance from station: NW 128mi, 205km
Updated: Sat, 29-Feb-2020 2:00pm CET
Mostly Cloudy
Mostly Cloudy
 Wind from WSW
Wind: WSW 14 mph , 22 km/h
Temperature: 54°F , 12°C
Dew Point: 46°F , 8°C
Humidity: 77%
Barometer: 29.47 inHg , 998 hPa
Clouds: Mostly Cloudy
Visibility: 6 miles , 10 km
Cloud details: Mostly Cloudy 2400 ft
Mostly Cloudy 2900 ft
Mostly Cloudy 3800 ft
2020/02/29 13:00 LFYR 291300Z AUTO 24012KT 210V280 9999 BKN024 BKN029 BKN038 12/08 Q0998
LFLB - Chambery/Aix Bai, France
Distance from station: E 131mi, 210km
Updated: Sat, 29-Feb-2020 2:00pm CET
Mostly Cloudy
Mostly Cloudy
 Wind from S
Wind: S 24 mph , 39 km/h
Temperature: 63°F , 17°C
Dew Point: 37°F , 3°C
Humidity: 39%
Barometer: 29.65 inHg , 1004 hPa
Clouds: Mostly Cloudy
Visibility: 6 miles , 10 km
Cloud details: Partly Cloudy 7600 ft
Mostly Cloudy 12000 ft
Mostly Cloudy 18000 ft
2020/02/29 13:00 LFLB 291300Z AUTO 18021KT 9999 SCT076 BKN120 BKN180 17/03 Q1004 TEMPO 18015G30KT
 
LFSD - Dijon/Longvic(Fa, France
Distance from station: NE 136mi, 219km
Updated: Sat, 29-Feb-2020 2:00pm CET
Light rain, Thunderstorm
Light rain, Thunderstorm
 Wind from S
Wind: S 26 mph , 43 km/h, Gust: 43 mph , 69 km/h
Temperature: 54°F , 12°C
Dew Point: 48°F , 9°C
Humidity: 82%
Barometer: 29.5 inHg , 999 hPa
Summary: Light Rain
Clouds: Thunderstorm
Visibility: 6 miles , 9 km
Cloud details: Few Clouds 2900 ft
Mostly Cloudy 4600 ft
Mostly Cloudy 5800 ft
2020/02/29 13:00 LFSD 291300Z AUTO 19023G37KT 9000 -RA FEW029/// BKN046/// BKN058/// ///CB 12/09 Q0999
LFGJ - Dole Tavaux, France
Distance from station: NE 139mi, 223km
Updated: Sat, 29-Feb-2020 2:00pm CET
Thunderstorm
Thunderstorm
 Wind from S
Wind: S 37 mph , 59 km/h, Gust: 51 mph , 81 km/h
Temperature: 55°F , 13°C
Dew Point: 45°F , 7°C
Humidity: 67%
Barometer: 29.5 inHg , 999 hPa
Clouds: Thunderstorm
Visibility: 6 miles , 10 km
2020/02/29 13:00 LFGJ 291300Z AUTO 19032G44KT 9999 ///TCU 13/07 Q0999 TEMPO 4000 SHRA SCT040CB
 
LFLP - Annecy/Meythet, France
Distance from station: E 141mi, 226km
Updated: Sat, 29-Feb-2020 2:00pm CET
Overcast
Overcast
 Wind from SSW
Wind: SSW 13 mph , 20 km/h
Temperature: 57°F , 14°C
Dew Point: 37°F , 3°C
Humidity: 48%
Barometer: 29.65 inHg , 1004 hPa
Clouds: Overcast
Visibility: 6 miles , 10 km
Cloud details: Mostly Cloudy 7400 ft
Overcast 8800 ft
2020/02/29 13:00 LFLP 291300Z AUTO 21011KT 9999 BKN074 OVC088 14/03 Q1004 TEMPO 24015G25KT 3000 SHRA FEW028CB BKN032TCU
LFBU - Brie Champniers, France
Distance from station: W 142mi, 229km
Updated: Sat, 29-Feb-2020 2:00pm CET
Thunderstorm
Thunderstorm
 Wind from W
Wind: W 20 mph , 31 km/h
Temperature: 54°F , 12°C
Dew Point: 43°F , 6°C
Humidity: 67%
Barometer: 29.62 inHg , 1003 hPa
Clouds: Thunderstorm
Visibility: 6 miles , 10 km
Cloud details: Few Clouds 2600 ft
Mostly Cloudy 3200 ft
Mostly Cloudy 4100 ft
2020/02/29 13:00 LFBU 291300Z AUTO 27017KT 230V290 9999 FEW026/// BKN032/// BKN041/// ///TCU 12/06 Q1003 TEMPO 3000 SHRA BECMG 24020G30KT

Metar display script from Saratoga-Weather.org